Marcel — ONDP — position and weather

sailwx.info

Track history (hours):
 
Tides and Currents Weather Stations Pressure Air Temp Water Temp Dewpoint Dewpoint Depression Visibility Wind Speed Wind Dir Waves Ship Positions

Marcel

Last reported at 2016-Aug-25 07:33 UTC. Time now 2016-Aug-25 08:04 UTC.
Position N 52°02' E 003°57'.

Length 88 m; draft 5.5 m.

Type: Cargo ship. MMSI: 205439000.

Date/timePositionNaut miles runAvg speedWind from/ knotsBaromVisibWave heightAir tempDewpointWater temp
2016-Aug-25 07:33N 52°02' E 003°57'8 8.3
2016-Aug-25 06:33N 51°58' E 004°09'16 8.1
2016-Aug-25 04:33N 51°50' E 004°32'8 7.8
2016-Aug-25 03:33N 51°43' E 004°37'2 0.1
2016-Aug-24 06:27N 51°41' E 004°36'0 0.0
2016-Aug-24 04:26N 51°41' E 004°36'0 0.0
2016-Aug-24 03:22N 51°41' E 004°36'0 0.0
2016-Aug-23 15:27N 51°41' E 004°36'0 0.0
2016-Aug-23 13:05N 51°41' E 004°36'0 0.0
2016-Aug-23 10:33N 51°41' E 004°36'0 0.0
2016-Aug-23 08:25N 51°41' E 004°36'0 0.0
2016-Aug-23 07:23N 51°41' E 004°36'0 0.0
2016-Aug-23 06:29N 51°41' E 004°36'0 0.0
2016-Aug-23 05:23N 51°41' E 004°36'0 0.0
2016-Aug-23 04:19N 51°41' E 004°36'0 0.0
2016-Aug-23 03:32N 51°41' E 004°36'0 0.0
2016-Aug-23 02:09N 51°41' E 004°36'0 0.0
2016-Aug-23 01:16N 51°41' E 004°36'0 0.0
2016-Aug-22 23:29N 51°41' E 004°36'0 0.0
2016-Aug-22 22:26N 51°41' E 004°36'0 0.0
2016-Aug-22 21:24N 51°41' E 004°36'0 0.0
2016-Aug-22 20:30N 51°41' E 004°36'0 0.0
2016-Aug-22 18:33N 51°41' E 004°36'0 0.0
2016-Aug-22 17:25N 51°41' E 004°36'0 0.0
2016-Aug-22 13:33N 51°41' E 004°36'0 0.0
2016-Aug-22 10:27N 51°41' E 004°36'3 3.7
2016-Aug-22 09:33N 51°44' E 004°38'7 7.1
2016-Aug-22 08:33N 51°50' E 004°31'8 7.9
2016-Aug-22 07:34N 51°53' E 004°19'8 8.4
2016-Aug-22 06:33N 51°58' E 004°08'9 9.2
2016-Aug-22 05:33N 51°60' E 003°53'26 3.2
2016-Aug-21 21:22N 51°48' E 003°15'4 5.4
2016-Aug-21 20:32N 51°44' E 003°13'8 8.1
2016-Aug-21 19:33N 51°38' E 003°22'1010.2
2016-Aug-21 18:33N 51°29' E 003°30'9 8.9
2016-Aug-21 17:33N 51°25' E 003°43'8 7.8
2016-Aug-21 16:33N 51°25' E 003°55'5 5.1
2016-Aug-21 15:33N 51°23' E 004°03'6 6.1
2016-Aug-21 14:33N 51°24' E 004°12'4 4.4
2016-Aug-21 13:32N 51°21' E 004°17'6 5.7
2016-Aug-21 12:33N 51°16' E 004°21'1 1.3
2016-Aug-21 11:33N 51°15' E 004°23'0 0.0
2016-Aug-21 10:32N 51°15' E 004°23'0 0.0
2016-Aug-21 09:27N 51°15' E 004°23'0 0.0
2016-Aug-21 08:33N 51°15' E 004°23'0 0.0
2016-Aug-21 07:27N 51°15' E 004°23'0 0.0
2016-Aug-21 06:33N 51°15' E 004°23'0 0.0
2016-Aug-21 05:31N 51°15' E 004°23'0 0.0
2016-Aug-21 04:31N 51°15' E 004°23'0 0.0
2016-Aug-21 03:27N 51°15' E 004°23'0 0.0
2016-Aug-21 02:32N 51°15' E 004°23'0 0.0
2016-Aug-21 01:33N 51°15' E 004°23'0 0.0
2016-Aug-21 00:31N 51°15' E 004°23'0 0.0
2016-Aug-20 23:27N 51°15' E 004°23'0 0.0
2016-Aug-20 22:31N 51°15' E 004°23'0 0.0
2016-Aug-20 21:28N 51°15' E 004°23'0 0.0
2016-Aug-20 20:31N 51°15' E 004°23'0 0.0
2016-Aug-20 19:32N 51°15' E 004°23'0 0.0
2016-Aug-20 18:24N 51°15' E 004°23'0 0.0
2016-Aug-20 17:31N 51°15' E 004°23'0 0.0
2016-Aug-20 16:31N 51°15' E 004°23'0 0.0
2016-Aug-20 15:27N 51°15' E 004°23'0 0.0
2016-Aug-20 14:33N 51°15' E 004°23'0 0.0
2016-Aug-20 13:32N 51°15' E 004°23'0 0.0
2016-Aug-20 12:29N 51°15' E 004°23'0 0.0
2016-Aug-20 11:33N 51°15' E 004°23'0 0.0
2016-Aug-20 10:33N 51°15' E 004°23'0 0.0
2016-Aug-20 09:26N 51°15' E 004°23'0 0.0
2016-Aug-20 08:31N 51°15' E 004°23'0 0.0
2016-Aug-20 07:33N 51°15' E 004°23'0 0.0
2016-Aug-20 06:33N 51°15' E 004°23'0 0.0
2016-Aug-20 05:26N 51°15' E 004°23'0 0.0
2016-Aug-20 04:27N 51°15' E 004°23'0 0.0
2016-Aug-20 03:32N 51°15' E 004°23'0 0.0
2016-Aug-20 02:30N 51°15' E 004°23'0 0.0
2016-Aug-20 01:28N 51°15' E 004°23'0 0.0
2016-Aug-20 00:31N 51°15' E 004°23'0 0.0
2016-Aug-19 23:32N 51°15' E 004°23'0 0.0
2016-Aug-19 22:30N 51°15' E 004°23'0 0.0
2016-Aug-19 21:32N 51°15' E 004°23'0 0.0
2016-Aug-19 20:31N 51°15' E 004°23'0 0.0
2016-Aug-19 19:27N 51°15' E 004°23'0 0.0
2016-Aug-19 18:31N 51°15' E 004°23'0 0.0
2016-Aug-19 17:30N 51°15' E 004°23'0 0.0
2016-Aug-19 16:29N 51°15' E 004°23'0 0.0
2016-Aug-19 15:30N 51°15' E 004°23'0 0.0
2016-Aug-19 14:28N 51°15' E 004°23'0 0.0
2016-Aug-19 13:32N 51°15' E 004°23'0 0.0
2016-Aug-19 12:31N 51°15' E 004°23'0 0.0
2016-Aug-19 11:32N 51°15' E 004°23'0 0.0
2016-Aug-19 10:32N 51°15' E 004°23'0 0.0
2016-Aug-19 09:32N 51°15' E 004°23'0 0.0
2016-Aug-19 08:21N 51°15' E 004°23'0 0.0
2016-Aug-19 07:26N 51°15' E 004°23'0 0.0
2016-Aug-19 06:28N 51°15' E 004°23'0 0.0
2016-Aug-19 05:33N 51°15' E 004°23'0 0.0
2016-Aug-19 04:30N 51°15' E 004°23'0 0.0
2016-Aug-19 03:27N 51°15' E 004°23'0 0.0
2016-Aug-19 02:31N 51°15' E 004°23'0 0.0
2016-Aug-19 01:27N 51°15' E 004°23'0 0.0
2016-Aug-19 00:28N 51°15' E 004°23'0 0.0
2016-Aug-18 23:33N 51°15' E 004°23'0 0.0
2016-Aug-18 22:29N 51°15' E 004°23'0 0.0
2016-Aug-18 21:27N 51°15' E 004°23'0 0.0
2016-Aug-18 20:28N 51°15' E 004°23'0 0.0
2016-Aug-18 19:33N 51°15' E 004°23'0 0.0
2016-Aug-18 18:31N 51°15' E 004°23'0 0.0
2016-Aug-18 17:32N 51°15' E 004°23'0 0.0
2016-Aug-18 16:32N 51°15' E 004°23'0 0.0
2016-Aug-18 15:27N 51°15' E 004°23'0 0.0
2016-Aug-18 14:28N 51°15' E 004°23'0 0.0
2016-Aug-18 13:32N 51°15' E 004°23'0 0.0
2016-Aug-18 12:31N 51°15' E 004°23'0 0.0
2016-Aug-18 11:30N 51°15' E 004°23'0 0.0
2016-Aug-18 10:26N 51°15' E 004°23'0 0.0
2016-Aug-18 09:30N 51°15' E 004°23'0 0.0
2016-Aug-18 08:28N 51°15' E 004°23'0 0.0
2016-Aug-18 07:32N 51°15' E 004°23'0 0.0
2016-Aug-18 06:28N 51°15' E 004°23'0 0.0
2016-Aug-18 05:29N 51°15' E 004°23'0 0.0
2016-Aug-18 04:33N 51°15' E 004°23'0 0.0
2016-Aug-18 03:31N 51°15' E 004°23'0 0.0
2016-Aug-18 02:33N 51°15' E 004°23'0 0.0
2016-Aug-18 01:29N 51°15' E 004°23'0 0.0
2016-Aug-18 00:33N 51°15' E 004°23'0 0.0
2016-Aug-17 23:29N 51°15' E 004°23'0 0.0
2016-Aug-17 22:30N 51°15' E 004°23'0 0.0
2016-Aug-17 21:32N 51°15' E 004°23'0 0.0
2016-Aug-17 20:33N 51°15' E 004°23'0 0.0
2016-Aug-17 19:31N 51°15' E 004°23'0 0.0
2016-Aug-17 18:28N 51°15' E 004°23'0 0.0
2016-Aug-17 17:32N 51°15' E 004°23'0 0.0
2016-Aug-17 16:27N 51°15' E 004°23'0 0.0
2016-Aug-17 15:31N 51°15' E 004°23'0 0.0
2016-Aug-17 14:28N 51°15' E 004°23'0 0.0
2016-Aug-17 13:29N 51°15' E 004°23'0 0.0
2016-Aug-17 12:27N 51°15' E 004°23'0 0.0
2016-Aug-17 11:33N 51°15' E 004°23'0 0.0
2016-Aug-17 10:27N 51°15' E 004°23'0 0.0
2016-Aug-17 09:31N 51°15' E 004°23'0 0.0
2016-Aug-17 08:31N 51°15' E 004°23'0 0.0
2016-Aug-17 07:31N 51°15' E 004°23'0 0.0
2016-Aug-17 06:19N 51°15' E 004°23'0 0.0
2016-Aug-17 05:29N 51°15' E 004°23'0 0.0
2016-Aug-17 04:33N 51°15' E 004°23'1 1.1
2016-Aug-17 03:33N 51°15' E 004°21'1 1.4
2016-Aug-17 02:33N 51°17' E 004°20'4 4.4
2016-Aug-17 01:33N 51°20' E 004°16'9 8.9
2016-Aug-17 00:33N 51°24' E 004°04'9 8.5
2016-Aug-16 23:33N 51°22' E 003°50'8 7.9
2016-Aug-16 22:33N 51°28' E 003°42'0 0.0
2016-Aug-16 21:33N 51°28' E 003°42'0 0.0
2016-Aug-16 20:33N 51°28' E 003°42'0 0.0
2016-Aug-16 19:33N 51°28' E 003°42'0 0.0
2016-Aug-16 18:34N 51°28' E 003°42'0 0.0
2016-Aug-16 17:34N 51°28' E 003°42'0 0.0
2016-Aug-16 16:34N 51°28' E 003°42'0 0.0
2016-Aug-16 15:34N 51°28' E 003°42'0 0.0
2016-Aug-16 14:33N 51°28' E 003°42'0 0.0
2016-Aug-16 13:33N 51°28' E 003°42'0 0.0
2016-Aug-16 12:33N 51°28' E 003°42'0 0.0
2016-Aug-16 11:34N 51°28' E 003°42'9 8.9
2016-Aug-16 10:34N 51°25' E 003°28'1211.9
2016-Aug-16 09:33N 51°22' E 003°09'10 9.9
2016-Aug-16 08:33N 51°21' E 002°54'9 8.8
2016-Aug-16 07:32N 51°22' E 002°39'3 1.0
2016-Aug-16 04:24N 51°20' E 002°35'0 0.0
2016-Aug-16 02:21N 51°20' E 002°35'0 0.1
2016-Aug-16 01:25N 51°20' E 002°35'0 0.0
2016-Aug-16 00:31N 51°20' E 002°35'0 0.0
2016-Aug-15 23:31N 51°20' E 002°35'0 0.0
2016-Aug-15 22:29N 51°20' E 002°35'0 0.1
2016-Aug-15 19:20N 51°20' E 002°35'0 0.4
2016-Aug-15 18:33N 51°20' E 002°35'6 6.4
2016-Aug-15 17:32N 51°20' E 002°25'8 8.0
2016-Aug-15 16:33N 51°16' E 002°14'8 8.3
2016-Aug-15 15:33N 51°12' E 002°02'8 8.5
2016-Aug-15 14:34N 51°08' E 001°51'19 9.3
2016-Aug-15 12:29N 50°53' E 001°30'  
Track history (hours):
 
Tides and Currents Weather Stations Pressure Air Temp Water Temp Dewpoint Dewpoint Depression Visibility Wind Speed Wind Dir Waves Ship Positions

Marcel

Last reported at 2016-Aug-25 07:33 UTC. Time now 2016-Aug-25 08:04 UTC.
Position N 52°02' E 003°57'.

Length 88 m; draft 5.5 m.

Type: Cargo ship. MMSI: 205439000.

Date/timePositionNaut miles runAvg speedWind from/ knotsBaromVisibWave heightAir tempDewpointWater temp
2016-Aug-25 07:33N 52°02' E 003°57'8 8.3
2016-Aug-25 06:33N 51°58' E 004°09'16 8.1
2016-Aug-25 04:33N 51°50' E 004°32'8 7.8
2016-Aug-25 03:33N 51°43' E 004°37'2 0.1
2016-Aug-24 06:27N 51°41' E 004°36'0 0.0
2016-Aug-24 04:26N 51°41' E 004°36'0 0.0
2016-Aug-24 03:22N 51°41' E 004°36'0 0.0
2016-Aug-23 15:27N 51°41' E 004°36'0 0.0
2016-Aug-23 13:05N 51°41' E 004°36'0 0.0
2016-Aug-23 10:33N 51°41' E 004°36'0 0.0
2016-Aug-23 08:25N 51°41' E 004°36'0 0.0
2016-Aug-23 07:23N 51°41' E 004°36'0 0.0
2016-Aug-23 06:29N 51°41' E 004°36'0 0.0
2016-Aug-23 05:23N 51°41' E 004°36'0 0.0
2016-Aug-23 04:19N 51°41' E 004°36'0 0.0
2016-Aug-23 03:32N 51°41' E 004°36'0 0.0
2016-Aug-23 02:09N 51°41' E 004°36'0 0.0
2016-Aug-23 01:16N 51°41' E 004°36'0 0.0
2016-Aug-22 23:29N 51°41' E 004°36'0 0.0
2016-Aug-22 22:26N 51°41' E 004°36'0 0.0
2016-Aug-22 21:24N 51°41' E 004°36'0 0.0
2016-Aug-22 20:30N 51°41' E 004°36'0 0.0
2016-Aug-22 18:33N 51°41' E 004°36'0 0.0
2016-Aug-22 17:25N 51°41' E 004°36'0 0.0
2016-Aug-22 13:33N 51°41' E 004°36'0 0.0
2016-Aug-22 10:27N 51°41' E 004°36'3 3.7
2016-Aug-22 09:33N 51°44' E 004°38'7 7.1
2016-Aug-22 08:33N 51°50' E 004°31'8 7.9
2016-Aug-22 07:34N 51°53' E 004°19'8 8.4
2016-Aug-22 06:33N 51°58' E 004°08'9 9.2
2016-Aug-22 05:33N 51°60' E 003°53'26 3.2
2016-Aug-21 21:22N 51°48' E 003°15'4 5.4
2016-Aug-21 20:32N 51°44' E 003°13'8 8.1
2016-Aug-21 19:33N 51°38' E 003°22'1010.2
2016-Aug-21 18:33N 51°29' E 003°30'9 8.9
2016-Aug-21 17:33N 51°25' E 003°43'8 7.8
2016-Aug-21 16:33N 51°25' E 003°55'5 5.1
2016-Aug-21 15:33N 51°23' E 004°03'6 6.1
2016-Aug-21 14:33N 51°24' E 004°12'4 4.4
2016-Aug-21 13:32N 51°21' E 004°17'6 5.7
2016-Aug-21 12:33N 51°16' E 004°21'1 1.3
2016-Aug-21 11:33N 51°15' E 004°23'0 0.0
2016-Aug-21 10:32N 51°15' E 004°23'0 0.0
2016-Aug-21 09:27N 51°15' E 004°23'0 0.0
2016-Aug-21 08:33N 51°15' E 004°23'0 0.0
2016-Aug-21 07:27N 51°15' E 004°23'0 0.0
2016-Aug-21 06:33N 51°15' E 004°23'0 0.0
2016-Aug-21 05:31N 51°15' E 004°23'0 0.0
2016-Aug-21 04:31N 51°15' E 004°23'0 0.0
2016-Aug-21 03:27N 51°15' E 004°23'0 0.0
2016-Aug-21 02:32N 51°15' E 004°23'0 0.0
2016-Aug-21 01:33N 51°15' E 004°23'0 0.0
2016-Aug-21 00:31N 51°15' E 004°23'0 0.0
2016-Aug-20 23:27N 51°15' E 004°23'0 0.0
2016-Aug-20 22:31N 51°15' E 004°23'0 0.0
2016-Aug-20 21:28N 51°15' E 004°23'0 0.0
2016-Aug-20 20:31N 51°15' E 004°23'0 0.0
2016-Aug-20 19:32N 51°15' E 004°23'0 0.0
2016-Aug-20 18:24N 51°15' E 004°23'0 0.0
2016-Aug-20 17:31N 51°15' E 004°23'0 0.0
2016-Aug-20 16:31N 51°15' E 004°23'0 0.0
2016-Aug-20 15:27N 51°15' E 004°23'0 0.0
2016-Aug-20 14:33N 51°15' E 004°23'0 0.0
2016-Aug-20 13:32N 51°15' E 004°23'0 0.0
2016-Aug-20 12:29N 51°15' E 004°23'0 0.0
2016-Aug-20 11:33N 51°15' E 004°23'0 0.0
2016-Aug-20 10:33N 51°15' E 004°23'0 0.0
2016-Aug-20 09:26N 51°15' E 004°23'0 0.0
2016-Aug-20 08:31N 51°15' E 004°23'0 0.0
2016-Aug-20 07:33N 51°15' E 004°23'0 0.0
2016-Aug-20 06:33N 51°15' E 004°23'0 0.0
2016-Aug-20 05:26N 51°15' E 004°23'0 0.0
2016-Aug-20 04:27N 51°15' E 004°23'0 0.0
2016-Aug-20 03:32N 51°15' E 004°23'0 0.0
2016-Aug-20 02:30N 51°15' E 004°23'0 0.0
2016-Aug-20 01:28N 51°15' E 004°23'0 0.0
2016-Aug-20 00:31N 51°15' E 004°23'0 0.0
2016-Aug-19 23:32N 51°15' E 004°23'0 0.0
2016-Aug-19 22:30N 51°15' E 004°23'0 0.0
2016-Aug-19 21:32N 51°15' E 004°23'0 0.0
2016-Aug-19 20:31N 51°15' E 004°23'0 0.0
2016-Aug-19 19:27N 51°15' E 004°23'0 0.0
2016-Aug-19 18:31N 51°15' E 004°23'0 0.0
2016-Aug-19 17:30N 51°15' E 004°23'0 0.0
2016-Aug-19 16:29N 51°15' E 004°23'0 0.0
2016-Aug-19 15:30N 51°15' E 004°23'0 0.0
2016-Aug-19 14:28N 51°15' E 004°23'0 0.0
2016-Aug-19 13:32N 51°15' E 004°23'0 0.0
2016-Aug-19 12:31N 51°15' E 004°23'0 0.0
2016-Aug-19 11:32N 51°15' E 004°23'0 0.0
2016-Aug-19 10:32N 51°15' E 004°23'0 0.0
2016-Aug-19 09:32N 51°15' E 004°23'0 0.0
2016-Aug-19 08:21N 51°15' E 004°23'0 0.0
2016-Aug-19 07:26N 51°15' E 004°23'0 0.0
2016-Aug-19 06:28N 51°15' E 004°23'0 0.0
2016-Aug-19 05:33N 51°15' E 004°23'0 0.0
2016-Aug-19 04:30N 51°15' E 004°23'0 0.0
2016-Aug-19 03:27N 51°15' E 004°23'0 0.0
2016-Aug-19 02:31N 51°15' E 004°23'0 0.0
2016-Aug-19 01:27N 51°15' E 004°23'0 0.0
2016-Aug-19 00:28N 51°15' E 004°23'0 0.0
2016-Aug-18 23:33N 51°15' E 004°23'0 0.0
2016-Aug-18 22:29N 51°15' E 004°23'0 0.0
2016-Aug-18 21:27N 51°15' E 004°23'0 0.0
2016-Aug-18 20:28N 51°15' E 004°23'0 0.0
2016-Aug-18 19:33N 51°15' E 004°23'0 0.0
2016-Aug-18 18:31N 51°15' E 004°23'0 0.0
2016-Aug-18 17:32N 51°15' E 004°23'0 0.0
2016-Aug-18 16:32N 51°15' E 004°23'0 0.0
2016-Aug-18 15:27N 51°15' E 004°23'0 0.0
2016-Aug-18 14:28N 51°15' E 004°23'0 0.0
2016-Aug-18 13:32N 51°15' E 004°23'0 0.0
2016-Aug-18 12:31N 51°15' E 004°23'0 0.0
2016-Aug-18 11:30N 51°15' E 004°23'0 0.0
2016-Aug-18 10:26N 51°15' E 004°23'0 0.0
2016-Aug-18 09:30N 51°15' E 004°23'0 0.0
2016-Aug-18 08:28N 51°15' E 004°23'0 0.0
2016-Aug-18 07:32N 51°15' E 004°23'0 0.0
2016-Aug-18 06:28N 51°15' E 004°23'0 0.0
2016-Aug-18 05:29N 51°15' E 004°23'0 0.0
2016-Aug-18 04:33N 51°15' E 004°23'0 0.0
2016-Aug-18 03:31N 51°15' E 004°23'0 0.0
2016-Aug-18 02:33N 51°15' E 004°23'0 0.0
2016-Aug-18 01:29N 51°15' E 004°23'0 0.0
2016-Aug-18 00:33N 51°15' E 004°23'0 0.0
2016-Aug-17 23:29N 51°15' E 004°23'0 0.0
2016-Aug-17 22:30N 51°15' E 004°23'0 0.0
2016-Aug-17 21:32N 51°15' E 004°23'0 0.0
2016-Aug-17 20:33N 51°15' E 004°23'0 0.0
2016-Aug-17 19:31N 51°15' E 004°23'0 0.0
2016-Aug-17 18:28N 51°15' E 004°23'0 0.0
2016-Aug-17 17:32N 51°15' E 004°23'0 0.0
2016-Aug-17 16:27N 51°15' E 004°23'0 0.0
2016-Aug-17 15:31N 51°15' E 004°23'0 0.0
2016-Aug-17 14:28N 51°15' E 004°23'0 0.0
2016-Aug-17 13:29N 51°15' E 004°23'0 0.0
2016-Aug-17 12:27N 51°15' E 004°23'0 0.0
2016-Aug-17 11:33N 51°15' E 004°23'0 0.0
2016-Aug-17 10:27N 51°15' E 004°23'0 0.0
2016-Aug-17 09:31N 51°15' E 004°23'0 0.0
2016-Aug-17 08:31N 51°15' E 004°23'0 0.0
2016-Aug-17 07:31N 51°15' E 004°23'0 0.0
2016-Aug-17 06:19N 51°15' E 004°23'0 0.0
2016-Aug-17 05:29N 51°15' E 004°23'0 0.0
2016-Aug-17 04:33N 51°15' E 004°23'1 1.1
2016-Aug-17 03:33N 51°15' E 004°21'1 1.4
2016-Aug-17 02:33N 51°17' E 004°20'4 4.4
2016-Aug-17 01:33N 51°20' E 004°16'9 8.9
2016-Aug-17 00:33N 51°24' E 004°04'9 8.5
2016-Aug-16 23:33N 51°22' E 003°50'8 7.9
2016-Aug-16 22:33N 51°28' E 003°42'0 0.0
2016-Aug-16 21:33N 51°28' E 003°42'0 0.0
2016-Aug-16 20:33N 51°28' E 003°42'0 0.0
2016-Aug-16 19:33N 51°28' E 003°42'0 0.0
2016-Aug-16 18:34N 51°28' E 003°42'0 0.0
2016-Aug-16 17:34N 51°28' E 003°42'0 0.0
2016-Aug-16 16:34N 51°28' E 003°42'0 0.0
2016-Aug-16 15:34N 51°28' E 003°42'0 0.0
2016-Aug-16 14:33N 51°28' E 003°42'0 0.0
2016-Aug-16 13:33N 51°28' E 003°42'0 0.0
2016-Aug-16 12:33N 51°28' E 003°42'0 0.0
2016-Aug-16 11:34N 51°28' E 003°42'9 8.9
2016-Aug-16 10:34N 51°25' E 003°28'1211.9
2016-Aug-16 09:33N 51°22' E 003°09'10 9.9
2016-Aug-16 08:33N 51°21' E 002°54'9 8.8
2016-Aug-16 07:32N 51°22' E 002°39'3 1.0
2016-Aug-16 04:24N 51°20' E 002°35'0 0.0
2016-Aug-16 02:21N 51°20' E 002°35'0 0.1
2016-Aug-16 01:25N 51°20' E 002°35'0 0.0
2016-Aug-16 00:31N 51°20' E 002°35'0 0.0
2016-Aug-15 23:31N 51°20' E 002°35'0 0.0
2016-Aug-15 22:29N 51°20' E 002°35'0 0.1
2016-Aug-15 19:20N 51°20' E 002°35'0 0.4
2016-Aug-15 18:33N 51°20' E 002°35'6 6.4
2016-Aug-15 17:32N 51°20' E 002°25'8 8.0
2016-Aug-15 16:33N 51°16' E 002°14'8 8.3
2016-Aug-15 15:33N 51°12' E 002°02'8 8.5
2016-Aug-15 14:34N 51°08' E 001°51'19 9.3
2016-Aug-15 12:29N 50°53' E 001°30'  

Dump ship's entire track history